createdAt,value
2019-04-22T00:01:04.836Z,4.42
2019-04-22T00:03:37.740Z,4.80
2019-04-22T00:06:25.967Z,4.83
2019-04-22T00:08:57.688Z,4.65
2019-04-22T00:11:29.181Z,4.90
2019-04-22T00:13:56.719Z,4.70
2019-04-22T00:16:32.068Z,5.05
2019-04-22T00:21:35.219Z,4.80
2019-04-22T00:23:59.078Z,4.83
2019-04-22T00:29:20.805Z,4.40
2019-04-22T00:31:37.861Z,4.28
2019-04-22T00:34:06.148Z,4.35
2019-04-22T00:36:40.380Z,4.40
2019-04-22T00:39:18.465Z,4.28
2019-04-22T00:41:44.067Z,4.20
2019-04-22T00:44:15.324Z,4.20
2019-04-22T00:46:44.447Z,4.28
2019-04-22T00:49:52.899Z,3.98
2019-04-22T00:51:44.776Z,3.90
2019-04-22T00:54:13.645Z,4.30
2019-04-22T00:56:42.203Z,4.53
2019-04-22T00:59:15.623Z,4.40
2019-04-22T01:01:46.412Z,4.45
2019-04-22T01:04:19.911Z,4.50
2019-04-22T01:06:39.823Z,4.00
2019-04-22T01:09:31.312Z,4.42
2019-04-22T01:11:44.953Z,4.70
2019-04-22T01:14:20.296Z,4.58
2019-04-22T01:16:50.891Z,4.53
2019-04-22T01:19:12.301Z,4.92
2019-04-22T01:21:44.826Z,4.75
2019-04-22T01:24:18.691Z,5.08
2019-04-22T01:26:43.420Z,5.25
2019-04-22T01:29:12.663Z,5.47
2019-04-22T01:31:31.546Z,5.20
2019-04-22T01:34:33.454Z,5.47
2019-04-22T01:37:08.000Z,4.80
2019-04-22T01:39:43.940Z,5.20
2019-04-22T01:42:10.482Z,5.20
2019-04-22T01:44:46.621Z,4.72
2019-04-22T01:47:21.352Z,5.55
2019-04-22T01:49:46.166Z,5.08
2019-04-22T01:52:15.770Z,5.10
2019-04-22T01:54:52.528Z,5.25
2019-04-22T01:57:18.752Z,4.75
2019-04-22T01:59:44.307Z,5.03
2019-04-22T02:02:25.523Z,4.85
2019-04-22T02:04:53.663Z,4.92
2019-04-22T02:07:28.003Z,4.85
2019-04-22T02:09:58.469Z,5.05
2019-04-22T02:14:50.696Z,4.90
2019-04-22T02:17:26.580Z,4.67
2019-04-22T02:20:02.610Z,4.55
2019-04-22T02:22:44.255Z,4.80
2019-04-22T02:24:58.847Z,5.12
2019-04-22T02:27:32.538Z,5.20
2019-04-22T02:29:51.990Z,5.30
2019-04-22T02:35:25.969Z,5.35
2019-04-22T02:37:32.287Z,5.67
2019-04-22T02:40:03.677Z,5.47
2019-04-22T02:42:24.618Z,5.08
2019-04-22T02:44:57.952Z,5.33
2019-04-22T02:47:27.754Z,6.10
2019-04-22T02:50:05.240Z,5.53
2019-04-22T02:55:08.213Z,6.00
2019-04-22T02:57:39.766Z,5.25
2019-04-22T03:00:14.121Z,5.50
2019-04-22T03:05:13.308Z,5.65
2019-04-22T03:07:42.437Z,6.20
2019-04-22T03:10:10.039Z,6.10
2019-04-22T03:12:35.246Z,6.83
2019-04-22T03:15:07.317Z,6.78
2019-04-22T03:17:47.359Z,6.50
2019-04-22T03:22:46.867Z,6.30
2019-04-22T03:25:43.126Z,6.78
2019-04-22T03:37:50.513Z,8.20
2019-04-22T03:40:28.598Z,7.33
2019-04-22T03:45:28.406Z,7.70
2019-04-22T03:47:53.588Z,8.10
2019-04-22T03:50:20.739Z,7.80
2019-04-22T03:52:50.413Z,7.55
2019-04-22T03:55:34.329Z,7.72
2019-04-22T03:57:50.141Z,7.47
2019-04-22T04:00:28.454Z,7.50
2019-04-22T04:02:54.825Z,7.00
2019-04-22T04:05:33.444Z,7.40
2019-04-22T04:07:57.725Z,7.35
2019-04-22T04:13:01.926Z,7.42
2019-04-22T04:15:23.568Z,6.97
2019-04-22T04:17:56.963Z,7.15
2019-04-22T04:25:38.498Z,7.12
2019-04-22T04:30:30.157Z,7.42
2019-04-22T04:32:59.040Z,7.72
2019-04-22T04:37:56.030Z,7.80
2019-04-22T04:43:03.233Z,7.97
2019-04-22T04:45:51.214Z,8.40
2019-04-22T04:47:54.581Z,7.65
2019-04-22T04:50:27.348Z,8.15
2019-04-22T04:53:06.102Z,8.40
2019-04-22T04:55:30.467Z,8.90
2019-04-22T04:58:29.681Z,8.70
2019-04-22T05:00:48.655Z,8.63
2019-04-22T05:03:00.602Z,9.15
2019-04-22T05:05:35.295Z,8.73
2019-04-22T05:18:09.230Z,9.28
2019-04-22T05:23:01.244Z,9.98
2019-04-22T05:25:36.851Z,9.10
2019-04-22T05:28:08.762Z,8.88
2019-04-22T05:30:57.640Z,8.65
2019-04-22T05:33:08.720Z,8.75
2019-04-22T05:35:37.852Z,8.70
2019-04-22T05:38:20.142Z,8.45
2019-04-22T05:40:34.900Z,8.18
2019-04-22T05:43:09.674Z,8.35
2019-04-22T05:45:36.965Z,8.88
2019-04-22T05:48:13.628Z,8.85
2019-04-22T05:50:45.352Z,9.40
2019-04-22T05:53:07.234Z,8.85
2019-04-22T05:58:15.630Z,8.50
2019-04-22T06:01:11.451Z,9.00
2019-04-22T06:03:16.544Z,9.05
2019-04-22T06:05:47.209Z,9.60
2019-04-22T06:08:19.703Z,9.33
2019-04-22T06:10:53.110Z,9.23
2019-04-22T06:13:18.155Z,9.35
2019-04-22T06:15:44.017Z,9.58
2019-04-22T06:18:27.499Z,9.38
2019-04-22T06:26:35.896Z,9.83
2019-04-22T06:28:51.922Z,10.30
2019-04-22T06:31:27.848Z,10.55
2019-04-22T06:33:48.512Z,9.40
2019-04-22T06:36:27.623Z,9.95
2019-04-22T06:38:45.909Z,10.45
2019-04-22T06:41:24.824Z,10.63
2019-04-22T06:43:56.314Z,10.13
2019-04-22T06:46:25.460Z,9.23
2019-04-22T06:48:52.403Z,10.50
2019-04-22T06:51:19.809Z,10.38
2019-04-22T06:53:48.017Z,9.90
2019-04-22T06:56:25.054Z,9.73
2019-04-22T06:58:52.268Z,10.15
2019-04-22T07:01:27.592Z,10.18
2019-04-22T07:03:53.656Z,10.18
2019-04-22T07:06:26.410Z,9.48
2019-04-22T07:09:14.282Z,9.60
2019-04-22T07:11:23.667Z,10.28
2019-04-22T07:14:01.513Z,10.78
2019-04-22T07:16:31.956Z,10.60
2019-04-22T07:18:56.621Z,9.85
2019-04-22T07:21:30.613Z,9.23
2019-04-22T07:24:17.501Z,10.38
2019-04-22T07:26:24.175Z,9.88
2019-04-22T07:29:04.097Z,9.65
2019-04-22T07:31:29.010Z,10.15
2019-04-22T07:34:08.441Z,10.00
2019-04-22T07:36:45.605Z,10.03
2019-04-22T07:39:04.198Z,10.08
2019-04-22T07:41:31.717Z,9.45
2019-04-22T07:44:13.163Z,9.90
2019-04-22T07:46:35.456Z,9.98
2019-04-22T07:49:06.647Z,9.93
2019-04-22T07:54:07.533Z,10.00
2019-04-22T07:56:39.123Z,10.13
2019-04-22T07:59:13.997Z,11.08
2019-04-22T08:04:21.312Z,9.90
2019-04-22T08:06:43.644Z,10.10
2019-04-22T08:09:13.923Z,10.23
2019-04-22T08:14:07.566Z,9.90
2019-04-22T08:16:43.957Z,10.23
2019-04-22T08:19:17.000Z,9.75
2019-04-22T08:21:46.938Z,9.98
2019-04-22T08:26:38.323Z,9.60
2019-04-22T08:29:14.495Z,9.40
2019-04-22T08:31:40.372Z,9.43
2019-04-22T08:34:14.140Z,9.20
2019-04-22T08:37:10.314Z,8.85
2019-04-22T08:39:32.562Z,8.78
2019-04-22T08:44:18.605Z,8.93
2019-04-22T08:46:49.015Z,9.63
2019-04-22T08:49:09.929Z,9.03
2019-04-22T08:51:42.796Z,9.03
2019-04-22T08:56:45.653Z,8.38
2019-04-22T08:59:28.358Z,8.10
2019-04-22T09:01:43.495Z,8.88
2019-04-22T09:04:11.977Z,8.03
2019-04-22T09:09:21.207Z,8.33
2019-04-22T09:11:54.758Z,8.88
2019-04-22T09:14:29.737Z,7.90
2019-04-22T09:16:48.490Z,8.35
2019-04-22T09:19:24.062Z,8.30
2019-04-22T09:22:00.572Z,8.75
2019-04-22T09:24:23.442Z,8.38
2019-04-22T09:27:17.866Z,8.80
2019-04-22T09:29:36.764Z,8.38
2019-04-22T09:32:09.544Z,8.33
2019-04-22T09:34:34.957Z,8.88
2019-04-22T09:37:06.143Z,8.30
2019-04-22T09:39:34.706Z,8.90
2019-04-22T09:42:07.878Z,8.30
2019-04-22T09:44:36.174Z,8.40
2019-04-22T09:47:08.126Z,8.23
2019-04-22T09:49:46.644Z,8.50
2019-04-22T09:52:08.449Z,8.98
2019-04-22T09:57:01.834Z,9.00
2019-04-22T09:59:36.314Z,9.50
2019-04-22T10:02:21.446Z,9.15
2019-04-22T10:04:39.777Z,9.28
2019-04-22T10:07:11.137Z,9.23
2019-04-22T10:09:53.174Z,9.10
2019-04-22T10:12:10.198Z,9.75
2019-04-22T10:14:42.500Z,9.78
2019-04-22T10:17:07.798Z,9.93
2019-04-22T10:19:41.239Z,9.70
2019-04-22T10:22:12.128Z,9.38
2019-04-22T10:24:39.181Z,8.95
2019-04-22T10:27:05.986Z,9.53
2019-04-22T10:29:47.233Z,9.20
2019-04-22T10:32:11.292Z,10.03
2019-04-22T10:34:28.922Z,9.13
2019-04-22T10:36:54.422Z,9.10
2019-04-22T10:39:20.321Z,9.53
2019-04-22T10:41:50.595Z,9.73
2019-04-22T10:44:19.687Z,9.40
2019-04-22T10:46:49.737Z,9.13
2019-04-22T10:49:18.559Z,9.63
2019-04-22T10:51:48.610Z,9.80
2019-04-22T10:54:17.773Z,9.35
2019-04-22T10:56:46.704Z,9.48
2019-04-22T10:59:16.434Z,9.30
2019-04-22T11:01:46.529Z,9.15
2019-04-22T11:04:15.509Z,9.25
2019-04-22T11:06:52.091Z,8.68
2019-04-22T11:09:16.202Z,9.93
2019-04-22T11:11:54.217Z,9.63
2019-04-22T11:14:16.825Z,9.93
2019-04-22T11:16:45.724Z,10.40
2019-04-22T11:19:14.551Z,9.50
2019-04-22T11:21:56.116Z,8.67
2019-04-22T11:24:14.846Z,9.20
2019-04-22T11:29:12.111Z,9.68
2019-04-22T11:31:42.115Z,9.23
2019-04-22T11:34:11.319Z,9.63
2019-04-22T11:36:40.870Z,9.40
2019-04-22T11:41:40.253Z,9.43
2019-04-22T11:44:09.555Z,9.15
2019-04-22T11:46:39.213Z,9.80
2019-04-22T11:51:38.083Z,9.65
2019-04-22T11:54:07.244Z,9.83
2019-04-22T11:56:36.915Z,10.32
2019-04-22T12:04:04.219Z,10.30
2019-04-22T12:06:33.748Z,9.73
2019-04-22T12:09:03.868Z,9.63
2019-04-22T12:11:32.772Z,9.85
2019-04-22T12:14:02.187Z,9.23
2019-04-22T12:16:31.646Z,10.15
2019-04-22T12:19:00.909Z,10.13
2019-04-22T12:21:30.960Z,10.68
2019-04-22T12:24:01.024Z,10.35
2019-04-22T12:26:30.635Z,9.68
2019-04-22T12:28:59.451Z,9.28
2019-04-22T12:31:29.294Z,9.45
2019-04-22T12:33:59.331Z,9.68
2019-04-22T12:36:28.675Z,9.23
2019-04-22T12:38:57.937Z,9.88
2019-04-22T12:41:27.795Z,9.98
2019-04-22T12:44:15.975Z,10.20
2019-04-22T12:46:46.015Z,9.85
2019-04-22T12:49:16.336Z,9.13
2019-04-22T12:51:45.406Z,9.38
2019-04-22T12:54:15.195Z,9.95
2019-04-22T12:59:14.001Z,9.10
2019-04-22T13:01:43.031Z,8.83
2019-04-22T13:04:15.551Z,9.27
2019-04-22T13:06:43.971Z,9.35
2019-04-22T13:09:12.904Z,9.38
2019-04-22T13:11:42.690Z,9.30
2019-04-22T13:14:12.715Z,8.60
2019-04-22T13:16:42.839Z,9.25
2019-04-22T13:19:13.699Z,8.55
2019-04-22T13:21:42.743Z,8.95
2019-04-22T13:24:13.120Z,9.73
2019-04-22T13:26:43.078Z,9.05
2019-04-22T13:34:25.561Z,9.40
2019-04-22T13:36:43.664Z,9.08
2019-04-22T13:39:13.304Z,8.95
2019-04-22T13:41:48.741Z,9.30
2019-04-22T13:44:12.875Z,9.60
2019-04-22T13:47:02.110Z,9.23
2019-04-22T13:49:40.700Z,10.03
2019-04-22T13:52:24.369Z,9.70
2019-04-22T13:57:01.678Z,9.88
2019-04-22T13:59:26.091Z,9.28
2019-04-22T14:02:01.456Z,9.08
2019-04-22T14:04:32.672Z,10.08
2019-04-22T14:07:02.882Z,9.43
2019-04-22T14:09:33.597Z,9.28
2019-04-22T14:12:05.670Z,9.45
2019-04-22T14:14:33.708Z,9.63
2019-04-22T14:17:03.001Z,9.70
2019-04-22T14:19:32.283Z,9.65
2019-04-22T14:22:01.957Z,9.63
2019-04-22T14:27:13.893Z,10.00
2019-04-22T14:29:29.499Z,10.10
2019-04-22T14:32:05.269Z,9.83
2019-04-22T14:34:30.255Z,9.60
2019-04-22T14:36:59.410Z,9.08
2019-04-22T14:39:28.431Z,9.85
2019-04-22T14:44:08.381Z,9.17
2019-04-22T14:47:19.609Z,9.85
2019-04-22T14:49:54.326Z,10.15
2019-04-22T14:52:22.796Z,9.65
2019-04-22T14:54:43.399Z,9.33
2019-04-22T14:57:01.137Z,9.55
2019-04-22T14:59:31.173Z,9.95
2019-04-22T15:02:01.433Z,10.63
2019-04-22T15:04:31.079Z,11.33
2019-04-22T15:07:01.159Z,9.73
2019-04-22T15:09:30.153Z,9.80
2019-04-22T15:12:11.130Z,9.83
2019-04-22T15:14:29.891Z,9.88
2019-04-22T15:17:13.129Z,9.48
2019-04-22T15:19:49.726Z,10.13
2019-04-22T15:22:18.823Z,9.78
2019-04-22T15:24:47.596Z,9.98
2019-04-22T15:27:16.415Z,10.07
2019-04-22T15:29:45.200Z,10.07
2019-04-22T15:32:15.319Z,10.17
2019-04-22T15:34:44.573Z,9.25
2019-04-22T15:37:13.949Z,9.60
2019-04-22T15:39:43.687Z,9.88
2019-04-22T15:44:42.328Z,10.50
2019-04-22T15:47:11.256Z,11.03
2019-04-22T15:49:40.270Z,10.27
2019-04-22T15:52:10.457Z,12.37
2019-04-22T15:54:39.579Z,11.53
2019-04-22T15:57:08.896Z,11.23
2019-04-22T15:59:56.284Z,11.75
2019-04-22T16:02:09.968Z,13.08
2019-04-22T16:04:38.874Z,12.00
2019-04-22T16:07:08.615Z,13.30
2019-04-22T16:12:16.329Z,11.15
2019-04-22T16:14:42.004Z,11.33
2019-04-22T16:17:06.712Z,10.80
2019-04-22T16:19:36.942Z,11.17
2019-04-22T16:22:11.190Z,11.88
2019-04-22T16:24:38.252Z,10.32
2019-04-22T16:27:11.773Z,11.10
2019-04-22T16:29:41.355Z,10.18
2019-04-22T16:32:11.416Z,9.53
2019-04-22T16:34:40.365Z,10.05
2019-04-22T16:37:10.470Z,10.98
2019-04-22T16:39:41.960Z,11.55
2019-04-22T16:42:14.458Z,11.63
2019-04-22T16:44:40.722Z,11.20
2019-04-22T16:47:09.976Z,11.43
2019-04-22T16:49:39.281Z,12.30
2019-04-22T16:52:08.163Z,12.10
2019-04-22T16:54:36.964Z,11.63
2019-04-22T16:57:06.009Z,11.00
2019-04-22T16:59:35.201Z,11.08
2019-04-22T17:02:19.002Z,11.43
2019-04-22T17:04:53.809Z,10.45
2019-04-22T17:07:22.734Z,10.20
2019-04-22T17:09:52.145Z,9.73
2019-04-22T17:12:23.740Z,9.95
2019-04-22T17:14:58.018Z,10.10
2019-04-22T17:17:22.415Z,10.00
2019-04-22T17:19:53.281Z,11.05
2019-04-22T17:22:21.783Z,11.18
2019-04-22T17:24:50.806Z,11.23
2019-04-22T17:27:20.226Z,11.40
2019-04-22T17:29:50.450Z,12.18
2019-04-22T17:32:22.951Z,11.40
2019-04-22T17:34:49.888Z,11.15
2019-04-22T17:37:25.827Z,11.35
2019-04-22T17:40:07.299Z,12.37
2019-04-22T17:42:40.550Z,11.03
2019-04-22T17:45:19.135Z,10.85
2019-04-22T17:47:43.215Z,11.78
2019-04-22T17:50:18.303Z,12.05
2019-04-22T17:52:59.450Z,12.65
2019-04-22T17:55:21.409Z,12.43
2019-04-22T17:57:40.902Z,12.50
2019-04-22T18:00:17.211Z,12.60
2019-04-22T18:02:46.014Z,13.85
2019-04-22T18:05:03.742Z,15.70
2019-04-22T18:07:48.871Z,14.05
2019-04-22T18:13:15.736Z,13.20
2019-04-22T18:15:19.140Z,13.85
2019-04-22T18:17:57.052Z,14.65
2019-04-22T18:20:17.528Z,15.20
2019-04-22T18:22:44.581Z,14.65
2019-04-22T18:25:14.096Z,14.68
2019-04-22T18:28:04.189Z,15.25
2019-04-22T18:30:18.740Z,15.00
2019-04-22T18:32:50.655Z,14.47
2019-04-22T18:35:26.493Z,14.68
2019-04-22T18:38:11.328Z,15.20
2019-04-22T18:40:30.588Z,15.68
2019-04-22T18:43:03.699Z,15.40
2019-04-22T18:45:43.789Z,16.25
2019-04-22T18:47:55.469Z,15.48
2019-04-22T18:50:46.644Z,16.05
2019-04-22T18:53:35.214Z,16.60
2019-04-22T18:56:13.851Z,17.02
2019-04-22T18:58:34.346Z,17.90
2019-04-22T19:00:52.538Z,17.75
2019-04-22T19:03:26.319Z,21.77
2019-04-22T19:06:27.481Z,21.75
2019-04-22T19:08:43.064Z,21.75
2019-04-22T19:11:11.243Z,19.73
2019-04-22T19:16:27.422Z,17.73
2019-04-22T19:18:52.509Z,19.20
2019-04-22T19:21:14.920Z,19.82
2019-04-22T19:23:44.845Z,18.35
2019-04-22T19:26:23.212Z,18.80
2019-04-22T19:28:49.796Z,18.15
2019-04-22T19:31:21.879Z,18.70
2019-04-22T19:33:50.072Z,20.43
2019-04-22T19:36:20.637Z,18.60
2019-04-22T19:38:49.798Z,18.67
2019-04-22T19:41:24.140Z,17.20
2019-04-22T19:43:53.280Z,18.48
2019-04-22T19:46:18.278Z,17.65
2019-04-22T19:48:57.828Z,20.37
2019-04-22T19:51:30.861Z,19.27
2019-04-22T19:53:52.417Z,19.40
2019-04-22T19:56:19.071Z,17.87
2019-04-22T19:58:47.656Z,18.85
2019-04-22T20:01:44.121Z,18.32
2019-04-22T20:04:21.923Z,18.17
2019-04-22T20:06:49.145Z,18.52
2019-04-22T20:09:25.048Z,18.70
2019-04-22T20:11:51.778Z,19.95
2019-04-22T20:14:23.491Z,20.97
2019-04-22T20:16:48.732Z,20.80
2019-04-22T20:19:35.724Z,18.62
2019-04-22T20:22:00.026Z,17.52
2019-04-22T20:24:12.947Z,18.77
2019-04-22T20:27:15.235Z,17.67
2019-04-22T20:29:31.069Z,17.57
2019-04-22T20:31:59.196Z,17.30
2019-04-22T20:34:33.006Z,24.55
2019-04-22T20:37:03.640Z,21.12
2019-04-22T20:39:33.432Z,17.37
2019-04-22T20:42:05.587Z,19.87
2019-04-22T20:44:39.570Z,26.20
2019-04-22T20:47:00.034Z,27.62
2019-04-22T20:49:38.385Z,27.25
2019-04-22T20:52:16.418Z,27.75
2019-04-22T20:54:40.223Z,26.48
2019-04-22T20:57:07.371Z,28.57
2019-04-22T20:59:37.934Z,26.60
2019-04-22T21:02:06.605Z,29.20
2019-04-22T21:04:32.325Z,28.38
2019-04-22T21:07:05.085Z,30.02
2019-04-22T21:09:38.185Z,29.57
2019-04-22T21:12:12.495Z,28.23
2019-04-22T21:14:41.326Z,29.80
2019-04-22T21:17:13.790Z,29.48
2019-04-22T21:19:46.455Z,31.73
2019-04-22T21:22:16.224Z,30.60
2019-04-22T21:24:47.538Z,30.05
2019-04-22T21:27:22.257Z,28.92
2019-04-22T21:29:40.318Z,30.15
2019-04-22T21:32:21.671Z,29.37
2019-04-22T21:34:54.033Z,28.92
2019-04-22T21:37:22.180Z,27.87
2019-04-22T21:39:42.004Z,26.30
2019-04-22T21:42:15.881Z,26.20
2019-04-22T21:44:46.975Z,26.57
2019-04-22T21:47:23.910Z,23.40
2019-04-22T21:49:53.490Z,24.15
2019-04-22T21:52:24.495Z,23.95
2019-04-22T21:54:57.124Z,24.75
2019-04-22T21:57:44.098Z,25.70
2019-04-22T22:00:17.677Z,25.27
2019-04-22T22:02:47.671Z,24.27
2019-04-22T22:05:07.863Z,24.82
2019-04-22T22:07:25.662Z,24.37
2019-04-22T22:10:13.490Z,25.02
2019-04-22T22:12:42.269Z,23.07
2019-04-22T22:15:13.271Z,23.75
2019-04-22T22:17:35.528Z,23.55
2019-04-22T22:20:08.138Z,23.05
2019-04-22T22:25:17.941Z,26.17
2019-04-22T22:27:40.853Z,24.77
2019-04-22T22:30:38.814Z,22.98
2019-04-22T22:32:47.808Z,22.60
2019-04-22T22:35:16.856Z,22.50
2019-04-22T22:37:45.006Z,22.37
2019-04-22T22:40:05.533Z,23.27
2019-04-22T22:42:34.552Z,23.75
2019-04-22T22:45:07.855Z,24.23
2019-04-22T22:47:45.636Z,23.77
2019-04-22T22:50:20.641Z,22.32
2019-04-22T22:53:00.860Z,24.75
2019-04-22T22:55:24.920Z,24.55
2019-04-22T22:57:50.053Z,24.67
2019-04-22T23:00:22.331Z,22.93
2019-04-22T23:03:10.771Z,22.98
2019-04-22T23:05:25.758Z,23.73
2019-04-22T23:07:54.173Z,24.15
2019-04-22T23:10:25.404Z,25.23
2019-04-22T23:12:55.577Z,24.80
2019-04-22T23:15:20.363Z,23.45
2019-04-22T23:17:37.026Z,25.20
2019-04-22T23:20:05.745Z,24.27
2019-04-22T23:22:58.967Z,24.85
2019-04-22T23:25:28.157Z,25.08
2019-04-22T23:28:00.012Z,26.00
2019-04-22T23:30:30.037Z,25.97
2019-04-22T23:33:16.226Z,26.77
2019-04-22T23:35:56.355Z,26.40
2019-04-22T23:38:24.192Z,24.05
2019-04-22T23:41:00.076Z,24.60
2019-04-22T23:43:32.646Z,25.65
2019-04-22T23:46:07.006Z,24.25
2019-04-22T23:48:29.070Z,24.20
2019-04-22T23:51:09.231Z,23.60
2019-04-22T23:53:57.973Z,24.57
2019-04-22T23:56:10.992Z,24.20
